createdAt,value
2018-04-15T00:00:17.553Z,0.00
2018-04-15T00:01:17.522Z,0.00
2018-04-15T00:02:17.531Z,0.00
2018-04-15T00:03:38.603Z,0.00
2018-04-15T00:04:17.489Z,0.00
2018-04-15T00:05:17.489Z,0.00
2018-04-15T00:06:17.485Z,0.00
2018-04-15T00:07:17.468Z,0.00
2018-04-15T00:08:17.433Z,0.00
2018-04-15T00:09:17.447Z,0.00
2018-04-15T00:10:17.407Z,0.00
2018-04-15T00:11:17.402Z,0.00
2018-04-15T00:12:17.375Z,0.00
2018-04-15T00:13:17.377Z,0.00
2018-04-15T00:14:17.349Z,0.00
2018-04-15T00:15:17.339Z,0.00
2018-04-15T00:16:17.324Z,0.00
2018-04-15T00:17:17.310Z,0.00
2018-04-15T00:18:17.321Z,0.00
2018-04-15T00:19:17.281Z,0.00
2018-04-15T00:20:17.268Z,0.00
2018-04-15T00:21:17.258Z,0.00
2018-04-15T00:22:17.248Z,0.00
2018-04-15T00:23:17.245Z,0.00
2018-04-15T00:24:17.214Z,0.00
2018-04-15T00:25:17.199Z,0.00
2018-04-15T00:26:17.202Z,0.00
2018-04-15T00:27:17.181Z,0.00
2018-04-15T00:28:17.162Z,0.00
2018-04-15T00:29:17.168Z,0.00
2018-04-15T00:30:17.153Z,0.00
2018-04-15T00:31:17.121Z,0.00
2018-04-15T00:32:17.111Z,0.00
2018-04-15T00:33:17.092Z,0.00
2018-04-15T00:34:17.086Z,0.00
2018-04-15T00:35:17.081Z,0.00
2018-04-15T00:36:17.050Z,0.00
2018-04-15T00:37:17.043Z,0.00
2018-04-15T00:38:17.028Z,0.00
2018-04-15T00:39:17.012Z,0.00
2018-04-15T00:40:17.045Z,0.00
2018-04-15T00:41:16.982Z,0.00
2018-04-15T00:42:16.967Z,0.00
2018-04-15T00:43:16.960Z,0.00
2018-04-15T00:44:16.944Z,0.00
2018-04-15T00:45:16.949Z,0.00
2018-04-15T00:46:16.949Z,0.00
2018-04-15T00:47:16.917Z,0.00
2018-04-15T00:48:16.893Z,0.00
2018-04-15T00:49:16.873Z,0.00
2018-04-15T00:50:16.866Z,0.00
2018-04-15T00:51:16.848Z,0.00
2018-04-15T00:52:16.875Z,0.00
2018-04-15T00:53:16.819Z,0.00
2018-04-15T00:54:16.806Z,0.00
2018-04-15T00:55:16.795Z,0.00
2018-04-15T00:56:16.802Z,0.00
2018-04-15T00:57:16.764Z,0.00
2018-04-15T00:58:16.770Z,0.00
2018-04-15T00:59:16.756Z,0.00
2018-04-15T01:00:16.730Z,0.00
2018-04-15T01:01:16.723Z,0.00
2018-04-15T01:02:16.703Z,0.00
2018-04-15T01:03:16.687Z,0.00
2018-04-15T01:04:16.695Z,0.00
2018-04-15T01:05:16.657Z,0.00
2018-04-15T01:06:16.641Z,0.00
2018-04-15T01:07:16.671Z,0.00
2018-04-15T01:08:16.615Z,0.00
2018-04-15T01:09:16.601Z,0.00
2018-04-15T01:10:16.613Z,0.00
2018-04-15T01:11:16.585Z,0.00
2018-04-15T01:12:16.584Z,0.00
2018-04-15T01:13:16.552Z,0.00
2018-04-15T01:14:16.536Z,0.00
2018-04-15T01:15:16.520Z,0.00
2018-04-15T01:16:16.520Z,0.00
2018-04-15T01:17:16.495Z,0.00
2018-04-15T01:18:16.499Z,0.00
2018-04-15T01:19:16.468Z,0.00
2018-04-15T01:20:16.457Z,0.00
2018-04-15T01:21:16.457Z,0.00
2018-04-15T01:22:16.435Z,0.00
2018-04-15T01:23:16.434Z,0.00
2018-04-15T01:24:16.400Z,0.00
2018-04-15T01:25:16.400Z,0.00
2018-04-15T01:26:16.373Z,0.00
2018-04-15T01:27:16.433Z,0.00
2018-04-15T01:28:16.343Z,0.00
2018-04-15T01:29:16.347Z,0.00
2018-04-15T01:30:16.317Z,0.00
2018-04-15T01:31:16.314Z,0.00
2018-04-15T01:32:16.320Z,0.00
2018-04-15T01:33:16.305Z,0.00
2018-04-15T01:34:16.261Z,0.00
2018-04-15T01:35:16.269Z,0.00
2018-04-15T01:36:16.236Z,0.00
2018-04-15T01:37:16.219Z,0.00
2018-04-15T01:38:16.214Z,0.00
2018-04-15T01:39:16.210Z,0.00
2018-04-15T01:40:16.191Z,0.00
2018-04-15T01:41:16.190Z,0.00
2018-04-15T01:42:16.151Z,0.00
2018-04-15T01:43:16.140Z,0.00
2018-04-15T01:44:16.643Z,0.00
2018-04-15T01:45:16.111Z,0.00
2018-04-15T01:46:17.107Z,0.00
2018-04-15T01:47:16.083Z,0.00
2018-04-15T01:48:16.074Z,0.00
2018-04-15T01:49:16.060Z,0.00
2018-04-15T01:50:16.062Z,0.00
2018-04-15T01:51:16.044Z,0.00
2018-04-15T01:52:16.046Z,0.00
2018-04-15T01:53:16.005Z,0.00
2018-04-15T01:54:16.002Z,0.00
2018-04-15T01:55:16.027Z,0.00
2018-04-15T01:56:15.964Z,0.00
2018-04-15T01:57:15.947Z,0.00
2018-04-15T01:58:15.946Z,0.00
2018-04-15T01:59:15.929Z,0.00
2018-04-15T02:00:15.923Z,0.00
2018-04-15T02:01:15.906Z,0.00
2018-04-15T02:02:15.905Z,0.00
2018-04-15T02:03:15.863Z,0.00
2018-04-15T02:04:15.850Z,0.00
2018-04-15T02:05:15.849Z,0.00
2018-04-15T02:06:15.838Z,0.00
2018-04-15T02:07:15.814Z,0.00
2018-04-15T02:08:15.816Z,0.00
2018-04-15T02:09:15.784Z,0.00
2018-04-15T02:10:15.767Z,0.00
2018-04-15T02:11:15.775Z,0.00
2018-04-15T02:12:15.746Z,0.00
2018-04-15T02:13:15.734Z,0.00
2018-04-15T02:14:15.716Z,0.00
2018-04-15T02:15:15.698Z,0.00
2018-04-15T02:16:15.705Z,0.00
2018-04-15T02:17:15.692Z,0.00
2018-04-15T02:18:15.674Z,0.00
2018-04-15T02:19:15.646Z,0.00
2018-04-15T02:20:15.645Z,0.00
2018-04-15T02:21:15.617Z,0.00
2018-04-15T02:22:15.604Z,0.00
2018-04-15T02:23:15.592Z,0.00
2018-04-15T02:24:15.591Z,0.00
2018-04-15T02:25:15.561Z,0.00
2018-04-15T02:26:15.558Z,0.00
2018-04-15T02:27:15.531Z,0.00
2018-04-15T02:28:15.521Z,0.00
2018-04-15T02:29:15.512Z,0.00
2018-04-15T02:30:15.508Z,0.00
2018-04-15T02:31:15.475Z,0.00
2018-04-15T02:32:15.493Z,0.00
2018-04-15T02:33:15.446Z,0.00
2018-04-15T02:34:15.435Z,0.00
2018-04-15T02:35:15.420Z,0.00
2018-04-15T02:36:15.411Z,0.00
2018-04-15T02:37:15.413Z,0.00
2018-04-15T02:38:15.383Z,0.00
2018-04-15T02:39:15.381Z,0.00
2018-04-15T02:40:15.370Z,0.00
2018-04-15T02:41:15.338Z,0.00
2018-04-15T02:42:15.338Z,0.00
2018-04-15T02:43:15.314Z,0.00
2018-04-15T02:44:15.299Z,0.00
2018-04-15T02:45:15.278Z,0.00
2018-04-15T02:46:15.266Z,0.00
2018-04-15T02:47:15.278Z,0.00
2018-04-15T02:48:15.236Z,0.00
2018-04-15T02:49:15.236Z,0.00
2018-04-15T02:50:15.208Z,0.00
2018-04-15T02:51:15.195Z,0.00
2018-04-15T02:52:15.200Z,0.00
2018-04-15T02:53:15.173Z,0.00
2018-04-15T02:54:15.177Z,0.00
2018-04-15T02:55:15.144Z,0.00
2018-04-15T02:56:15.128Z,0.00
2018-04-15T02:57:15.112Z,0.00
2018-04-15T02:58:15.100Z,0.00
2018-04-15T02:59:15.086Z,0.00
2018-04-15T03:00:15.084Z,0.00
2018-04-15T03:01:15.059Z,0.00
2018-04-15T03:02:15.045Z,0.00
2018-04-15T03:03:15.051Z,0.00
2018-04-15T03:04:15.663Z,0.00
2018-04-15T03:05:15.024Z,0.00
2018-04-15T03:06:15.000Z,0.00
2018-04-15T03:07:14.989Z,0.00
2018-04-15T03:08:15.000Z,0.00
2018-04-15T03:09:14.954Z,0.00
2018-04-15T03:10:14.925Z,0.00
2018-04-15T03:11:14.946Z,0.00
2018-04-15T03:12:14.913Z,0.00
2018-04-15T03:13:14.897Z,0.00
2018-04-15T03:14:14.884Z,0.00
2018-04-15T03:15:14.855Z,0.00
2018-04-15T03:16:14.853Z,0.00
2018-04-15T03:17:14.842Z,0.00
2018-04-15T03:18:14.812Z,0.00
2018-04-15T03:19:14.796Z,0.00
2018-04-15T03:20:14.795Z,0.00
2018-04-15T03:21:14.782Z,0.00
2018-04-15T03:22:14.775Z,0.00
2018-04-15T03:23:14.740Z,0.00
2018-04-15T03:24:14.726Z,0.00
2018-04-15T03:25:14.719Z,0.00
2018-04-15T03:26:14.699Z,0.00
2018-04-15T03:27:14.685Z,0.00
2018-04-15T03:28:14.690Z,0.00
2018-04-15T03:29:14.651Z,0.00
2018-04-15T03:30:14.642Z,0.00
2018-04-15T03:31:14.622Z,0.00
2018-04-15T03:32:14.608Z,0.00
2018-04-15T03:33:14.609Z,0.00
2018-04-15T03:34:14.580Z,0.00
2018-04-15T03:35:14.563Z,0.00
2018-04-15T03:36:14.545Z,0.00
2018-04-15T03:37:14.545Z,0.00
2018-04-15T03:38:14.521Z,0.00
2018-04-15T03:39:14.513Z,0.00
2018-04-15T03:40:14.493Z,0.00
2018-04-15T03:41:14.484Z,0.00
2018-04-15T03:42:14.481Z,0.00
2018-04-15T03:43:14.468Z,0.00
2018-04-15T03:44:14.430Z,0.00
2018-04-15T03:45:14.423Z,0.00
2018-04-15T03:46:14.414Z,0.00
2018-04-15T03:47:14.419Z,0.00
2018-04-15T03:48:14.372Z,0.00
2018-04-15T03:49:14.356Z,0.00
2018-04-15T03:50:14.340Z,0.00
2018-04-15T03:51:14.339Z,0.00
2018-04-15T03:52:14.317Z,0.00
2018-04-15T03:53:14.317Z,0.00
2018-04-15T03:54:14.312Z,0.00
2018-04-15T03:55:14.268Z,0.00
2018-04-15T03:56:14.252Z,0.00
2018-04-15T03:57:16.135Z,0.00
2018-04-15T03:58:35.236Z,0.00
2018-04-15T03:59:14.228Z,0.00
2018-04-15T04:00:14.213Z,0.00
2018-04-15T04:01:14.179Z,0.00
2018-04-15T04:02:14.183Z,0.00
2018-04-15T04:03:14.157Z,0.00
2018-04-15T04:04:14.138Z,0.00
2018-04-15T04:05:14.128Z,0.00
2018-04-15T04:06:35.132Z,0.00
2018-04-15T04:07:14.094Z,0.00
2018-04-15T04:08:14.097Z,0.00
2018-04-15T04:09:14.071Z,0.00
2018-04-15T04:10:14.050Z,0.00
2018-04-15T04:11:14.037Z,0.00
2018-04-15T04:12:35.037Z,0.00
2018-04-15T04:13:14.005Z,0.00
2018-04-15T04:14:14.000Z,0.00
2018-04-15T04:15:13.978Z,0.00
2018-04-15T04:16:13.964Z,0.00
2018-04-15T04:17:13.968Z,0.00
2018-04-15T04:18:13.933Z,0.00
2018-04-15T04:19:13.932Z,0.00
2018-04-15T04:20:13.908Z,0.00
2018-04-15T04:21:13.896Z,0.00
2018-04-15T04:22:13.874Z,0.00
2018-04-15T04:23:13.872Z,4.00
2018-04-15T04:24:13.844Z,4.00
2018-04-15T04:25:13.850Z,4.00
2018-04-15T04:26:13.818Z,0.00
2018-04-15T04:27:13.797Z,4.00
2018-04-15T04:28:13.786Z,4.00
2018-04-15T04:29:13.765Z,8.00
2018-04-15T04:30:13.760Z,4.00
2018-04-15T04:31:13.779Z,8.00
2018-04-15T04:32:13.725Z,8.00
2018-04-15T04:33:13.711Z,8.00
2018-04-15T04:34:13.696Z,12.00
2018-04-15T04:35:13.684Z,8.00
2018-04-15T04:36:13.676Z,12.00
2018-04-15T04:37:13.684Z,12.00
2018-04-15T04:38:13.640Z,16.00
2018-04-15T04:39:13.657Z,16.00
2018-04-15T04:40:13.619Z,20.00
2018-04-15T04:41:13.595Z,16.00
2018-04-15T04:42:13.581Z,20.00
2018-04-15T04:43:13.580Z,20.00
2018-04-15T04:44:13.546Z,24.00
2018-04-15T04:45:13.561Z,24.00
2018-04-15T04:46:13.525Z,28.00
2018-04-15T04:47:13.506Z,28.00
2018-04-15T04:48:13.495Z,28.00
2018-04-15T04:49:13.476Z,32.00
2018-04-15T04:50:13.467Z,32.00
2018-04-15T04:51:13.463Z,32.00
2018-04-15T04:52:13.441Z,36.00
2018-04-15T04:53:13.418Z,36.00
2018-04-15T04:54:13.405Z,40.00
2018-04-15T04:55:13.390Z,44.00
2018-04-15T04:56:13.404Z,48.00
2018-04-15T04:57:13.371Z,48.00
2018-04-15T04:58:13.348Z,52.00
2018-04-15T04:59:14.181Z,56.00
2018-04-15T05:00:13.341Z,60.00
2018-04-15T05:01:13.304Z,60.00
2018-04-15T05:02:13.300Z,68.00
2018-04-15T05:03:13.279Z,72.00
2018-04-15T05:04:13.257Z,80.00
2018-04-15T05:05:13.270Z,84.00
2018-04-15T05:06:13.236Z,88.00
2018-04-15T05:07:13.214Z,92.00
2018-04-15T05:08:13.199Z,100.00
2018-04-15T05:09:13.206Z,104.00
2018-04-15T05:10:13.178Z,112.00
2018-04-15T05:11:13.178Z,120.00
2018-04-15T05:12:13.138Z,128.00
2018-04-15T05:13:13.134Z,136.00
2018-04-15T05:14:13.111Z,148.00
2018-04-15T05:15:13.099Z,156.00
2018-04-15T05:16:13.682Z,172.00
2018-04-15T05:17:13.080Z,184.00
2018-04-15T05:18:13.058Z,200.00
2018-04-15T05:19:13.047Z,220.00
2018-04-15T05:20:13.027Z,248.00
2018-04-15T05:21:13.019Z,280.00
2018-04-15T05:22:13.023Z,316.00
2018-04-15T05:23:12.987Z,364.00
2018-04-15T05:24:12.972Z,412.00
2018-04-15T05:25:12.952Z,448.00
2018-04-15T05:26:12.952Z,488.00
2018-04-15T05:27:12.944Z,524.00
2018-04-15T05:28:12.917Z,552.00
2018-04-15T05:29:12.900Z,584.00
2018-04-15T05:30:12.876Z,612.00
2018-04-15T05:31:12.868Z,636.00
2018-04-15T05:32:12.918Z,664.00
2018-04-15T05:33:12.935Z,684.00
2018-04-15T05:34:12.923Z,684.00
2018-04-15T05:35:12.819Z,688.00
2018-04-15T05:36:12.797Z,696.00
2018-04-15T05:37:12.795Z,704.00
2018-04-15T05:38:12.780Z,728.00
2018-04-15T05:39:12.751Z,744.00
2018-04-15T05:40:12.732Z,756.00
2018-04-15T05:41:12.743Z,760.00
2018-04-15T05:42:12.706Z,752.00
2018-04-15T05:43:12.693Z,752.00
2018-04-15T05:44:12.682Z,720.00
2018-04-15T05:45:12.667Z,684.00
2018-04-15T05:46:12.651Z,640.00
2018-04-15T05:47:12.728Z,580.00
2018-04-15T05:48:12.622Z,540.00
2018-04-15T05:49:12.622Z,516.00
2018-04-15T05:50:12.587Z,492.00
2018-04-15T05:51:12.582Z,468.00
2018-04-15T05:52:12.561Z,436.00
2018-04-15T05:53:12.550Z,412.00
2018-04-15T05:54:12.536Z,400.00
2018-04-15T05:55:12.535Z,400.00
2018-04-15T05:56:12.503Z,412.00
2018-04-15T05:57:12.489Z,444.00
2018-04-15T05:58:12.491Z,484.00
2018-04-15T05:59:12.461Z,536.00
2018-04-15T06:00:12.443Z,604.00
2018-04-15T06:01:12.430Z,652.00
2018-04-15T06:02:12.418Z,724.00
2018-04-15T06:03:12.418Z,776.00
2018-04-15T06:04:12.405Z,808.00
2018-04-15T06:05:12.401Z,864.00
2018-04-15T06:06:12.359Z,928.00
2018-04-15T06:07:12.347Z,992.00
2018-04-15T06:08:12.346Z,1020.00
2018-04-15T06:09:12.316Z,1036.00
2018-04-15T06:10:12.303Z,1028.00
2018-04-15T06:11:12.288Z,1012.00
2018-04-15T06:12:12.269Z,960.00
2018-04-15T06:13:12.253Z,880.00
2018-04-15T06:14:12.254Z,812.00
2018-04-15T06:15:12.246Z,756.00
2018-04-15T06:16:12.218Z,744.00
2018-04-15T06:17:12.204Z,740.00
2018-04-15T06:18:12.189Z,732.00
2018-04-15T06:19:12.170Z,708.00
2018-04-15T06:20:12.702Z,684.00
2018-04-15T06:21:12.138Z,672.00
2018-04-15T06:22:12.128Z,704.00
2018-04-15T06:23:12.116Z,764.00
2018-04-15T06:24:12.103Z,860.00
2018-04-15T06:25:12.086Z,1032.00
2018-04-15T06:26:12.086Z,1240.00
2018-04-15T06:27:12.058Z,1380.00
2018-04-15T06:28:12.042Z,1372.00
2018-04-15T06:29:12.027Z,1360.00
2018-04-15T06:30:12.017Z,1264.00
2018-04-15T06:31:12.668Z,1168.00
2018-04-15T06:32:12.003Z,1116.00
2018-04-15T06:33:11.971Z,1064.00
2018-04-15T06:34:12.691Z,1044.00
2018-04-15T06:35:11.937Z,1060.00
2018-04-15T06:36:11.928Z,1080.00
2018-04-15T06:37:11.921Z,1096.00
2018-04-15T06:38:11.912Z,1156.00
2018-04-15T06:39:11.898Z,1248.00
2018-04-15T06:40:11.910Z,1312.00
2018-04-15T06:41:11.856Z,1488.00
2018-04-15T06:42:11.842Z,1712.00
2018-04-15T06:43:11.844Z,1968.00
2018-04-15T06:44:11.813Z,2108.00
2018-04-15T06:45:11.798Z,2212.00
2018-04-15T06:46:11.787Z,2304.00
2018-04-15T06:47:11.775Z,2404.00
2018-04-15T06:48:11.757Z,2372.00
2018-04-15T06:49:11.788Z,2516.00
2018-04-15T06:50:11.743Z,2376.00
2018-04-15T06:51:11.716Z,1952.00
2018-04-15T06:52:11.703Z,1904.00
2018-04-15T06:53:11.686Z,1720.00
2018-04-15T06:54:11.670Z,2108.00
2018-04-15T06:55:11.676Z,2096.00
2018-04-15T06:56:11.643Z,2376.00
2018-04-15T06:57:11.626Z,2432.00
2018-04-15T06:58:11.617Z,2236.00
2018-04-15T06:59:11.606Z,2204.00
2018-04-15T07:00:11.587Z,1960.00
2018-04-15T07:01:11.595Z,1712.00
2018-04-15T07:02:11.560Z,1612.00
2018-04-15T07:03:11.548Z,1668.00
2018-04-15T07:04:11.529Z,1896.00
2018-04-15T07:05:11.518Z,2548.00
2018-04-15T07:06:11.508Z,1528.00
2018-04-15T07:07:11.510Z,1520.00
2018-04-15T07:08:11.476Z,2624.00
2018-04-15T07:09:11.462Z,1628.00
2018-04-15T07:10:11.455Z,2928.00
2018-04-15T07:11:11.729Z,2264.00
2018-04-15T07:12:11.421Z,1924.00
2018-04-15T07:13:11.420Z,1748.00
2018-04-15T07:14:11.404Z,1464.00
2018-04-15T07:15:11.381Z,1624.00
2018-04-15T07:16:11.372Z,1452.00
2018-04-15T07:17:13.175Z,1576.00
2018-04-15T07:18:11.339Z,1748.00
2018-04-15T07:19:11.342Z,1656.00
2018-04-15T07:20:11.312Z,1664.00
2018-04-15T07:21:11.306Z,1756.00
2018-04-15T07:22:11.286Z,1896.00
2018-04-15T07:23:11.270Z,1620.00
2018-04-15T07:24:11.275Z,1560.00
2018-04-15T07:25:11.246Z,1668.00
2018-04-15T07:26:11.234Z,1592.00
2018-04-15T07:27:11.215Z,1532.00
2018-04-15T07:28:11.208Z,1512.00
2018-04-15T07:29:11.203Z,1588.00
2018-04-15T07:30:11.176Z,1628.00
2018-04-15T07:31:11.162Z,1748.00
2018-04-15T07:32:11.147Z,1976.00
2018-04-15T07:33:11.136Z,1596.00
2018-04-15T07:34:11.136Z,1724.00
2018-04-15T07:35:11.109Z,1744.00
2018-04-15T07:36:11.093Z,2052.00
2018-04-15T07:37:11.084Z,2600.00
2018-04-15T07:38:11.064Z,2352.00
2018-04-15T07:39:11.072Z,2268.00
2018-04-15T07:40:11.036Z,2104.00
2018-04-15T07:41:11.023Z,1612.00
2018-04-15T07:42:11.011Z,1684.00
2018-04-15T07:43:10.998Z,1688.00
2018-04-15T07:44:10.979Z,1788.00
2018-04-15T07:45:10.986Z,2040.00
2018-04-15T07:46:10.956Z,2020.00
2018-04-15T07:47:10.937Z,2456.00
2018-04-15T07:48:10.927Z,4084.00
2018-04-15T07:49:10.914Z,2484.00
2018-04-15T07:50:10.903Z,2532.00
2018-04-15T07:51:10.901Z,3012.00
2018-04-15T07:52:10.874Z,2936.00
2018-04-15T07:53:11.719Z,3472.00
2018-04-15T07:54:10.845Z,2024.00
2018-04-15T07:55:10.848Z,3364.00
2018-04-15T07:56:10.869Z,2312.00
2018-04-15T07:57:10.818Z,2280.00
2018-04-15T07:58:10.794Z,2676.00
2018-04-15T07:59:10.782Z,4896.00
2018-04-15T08:00:10.765Z,2760.00
2018-04-15T08:01:10.768Z,3756.00
2018-04-15T08:02:10.748Z,4028.00
2018-04-15T08:03:10.724Z,4688.00
2018-04-15T08:04:10.708Z,3212.00
2018-04-15T08:05:10.692Z,2204.00
2018-04-15T08:06:10.683Z,4084.00
2018-04-15T08:07:10.684Z,3508.00
2018-04-15T08:08:10.655Z,3784.00
2018-04-15T08:09:10.640Z,2708.00
2018-04-15T08:10:11.221Z,3076.00
2018-04-15T08:11:10.615Z,4112.00
2018-04-15T08:12:10.613Z,5620.00
2018-04-15T08:13:10.605Z,3820.00
2018-04-15T08:14:10.582Z,3604.00
2018-04-15T08:15:10.566Z,4176.00
2018-04-15T08:16:11.724Z,7404.00
2018-04-15T08:17:10.562Z,6736.00
2018-04-15T08:18:10.523Z,6956.00
2018-04-15T08:19:10.522Z,5976.00
2018-04-15T08:20:10.509Z,6264.00
2018-04-15T08:21:10.483Z,6732.00
2018-04-15T08:22:10.471Z,7904.00
2018-04-15T08:23:10.459Z,6712.00
2018-04-15T08:24:10.444Z,6176.00
2018-04-15T08:25:10.453Z,7600.00
2018-04-15T08:26:10.421Z,5504.00
2018-04-15T08:27:10.406Z,3784.00
2018-04-15T08:28:10.390Z,3704.00
2018-04-15T08:29:10.397Z,5716.00
2018-04-15T08:30:10.383Z,4404.00
2018-04-15T08:31:10.362Z,4532.00
2018-04-15T08:32:10.340Z,5860.00
2018-04-15T08:33:10.340Z,5968.00
2018-04-15T08:34:10.317Z,6824.00
2018-04-15T08:35:10.303Z,7404.00
2018-04-15T08:36:10.306Z,7576.00
2018-04-15T08:37:10.294Z,8504.00
2018-04-15T08:38:10.262Z,8012.00
2018-04-15T08:39:10.255Z,8756.00
2018-04-15T08:40:10.242Z,7312.00
2018-04-15T08:41:10.228Z,7980.00
2018-04-15T08:42:10.236Z,8884.00
2018-04-15T08:43:10.202Z,12292.00
2018-04-15T08:44:10.187Z,9520.00
2018-04-15T08:45:10.181Z,6188.00
2018-04-15T08:46:10.163Z,7580.00
2018-04-15T08:47:10.155Z,13524.00
2018-04-15T08:48:10.162Z,19872.00
2018-04-15T08:49:10.132Z,17696.00
2018-04-15T08:50:10.120Z,8260.00
2018-04-15T08:51:10.110Z,7748.00
2018-04-15T08:52:10.097Z,6360.00
2018-04-15T08:53:10.084Z,3828.00
2018-04-15T08:54:10.090Z,3516.00
2018-04-15T08:55:10.066Z,4348.00
2018-04-15T08:56:10.047Z,5424.00
2018-04-15T08:57:10.038Z,9684.00
2018-04-15T08:58:10.040Z,6936.00
2018-04-15T08:59:10.010Z,9296.00
2018-04-15T09:00:10.003Z,11256.00
2018-04-15T09:01:09.990Z,5172.00
2018-04-15T09:02:09.996Z,6752.00
2018-04-15T09:03:09.970Z,3516.00
2018-04-15T09:04:09.960Z,5096.00
2018-04-15T09:05:09.946Z,4204.00
2018-04-15T09:06:09.944Z,4032.00
2018-04-15T09:07:09.925Z,4380.00
2018-04-15T09:08:09.911Z,6656.00
2018-04-15T09:09:09.907Z,6432.00
2018-04-15T09:10:09.889Z,11224.00
2018-04-15T09:11:09.894Z,8392.00
2018-04-15T09:12:09.868Z,18112.00
2018-04-15T09:13:09.849Z,29408.00
2018-04-15T09:14:09.843Z,33568.00
2018-04-15T09:15:09.854Z,28096.00
2018-04-15T09:16:09.823Z,44928.00
2018-04-15T09:17:09.810Z,68800.00
2018-04-15T09:18:09.806Z,55264.00
2018-04-15T09:19:09.869Z,61152.00
2018-04-15T09:20:09.776Z,41152.00
2018-04-15T09:21:09.783Z,76128.00
2018-04-15T09:22:09.752Z,78592.00
2018-04-15T09:23:09.765Z,76192.00
2018-04-15T09:24:09.731Z,76416.00
2018-04-15T09:25:09.724Z,73632.00
2018-04-15T09:26:09.727Z,73568.00
2018-04-15T09:27:09.701Z,57152.00
2018-04-15T09:28:10.707Z,72544.00
2018-04-15T09:29:09.685Z,10988.00
2018-04-15T09:30:09.700Z,12856.00
2018-04-15T09:31:09.679Z,24480.00
2018-04-15T09:32:09.653Z,71840.00
2018-04-15T09:33:09.647Z,74912.00
2018-04-15T09:34:09.639Z,65952.00
2018-04-15T09:35:09.631Z,78624.00
2018-04-15T09:36:09.621Z,79968.00
2018-04-15T09:37:09.624Z,77856.00
2018-04-15T09:38:09.609Z,77120.00
2018-04-15T09:39:09.599Z,71104.00
2018-04-15T09:40:09.592Z,79392.00
2018-04-15T09:41:10.209Z,77632.00
2018-04-15T09:42:11.210Z,73760.00
2018-04-15T09:43:09.567Z,77952.00
2018-04-15T09:44:09.579Z,73216.00
2018-04-15T09:45:09.560Z,78016.00
2018-04-15T09:46:09.569Z,76800.00
2018-04-15T09:47:09.544Z,78048.00
2018-04-15T09:48:09.558Z,75648.00
2018-04-15T09:49:09.537Z,76480.00
2018-04-15T09:50:09.529Z,80288.00
2018-04-15T09:51:09.524Z,82432.00
2018-04-15T09:52:09.522Z,84096.00
2018-04-15T09:53:09.529Z,85760.00
2018-04-15T09:54:09.518Z,46720.00
2018-04-15T09:55:09.506Z,77664.00
2018-04-15T09:56:09.499Z,17792.00
2018-04-15T09:57:09.505Z,88128.00
2018-04-15T09:58:09.509Z,85856.00
2018-04-15T09:59:09.506Z,85664.00
2018-04-15T10:00:09.483Z,17568.00
2018-04-15T10:01:09.487Z,32384.00
2018-04-15T10:02:09.476Z,89216.00
2018-04-15T10:03:09.471Z,84832.00
2018-04-15T10:04:09.483Z,83712.00
2018-04-15T10:05:09.462Z,84064.00
2018-04-15T10:06:09.461Z,83296.00
2018-04-15T10:07:09.458Z,82112.00
2018-04-15T10:08:09.451Z,83488.00
2018-04-15T10:09:09.462Z,85568.00
2018-04-15T10:10:09.446Z,86176.00
2018-04-15T10:11:09.439Z,84960.00
2018-04-15T10:12:09.436Z,82208.00
2018-04-15T10:13:09.434Z,93152.00
2018-04-15T10:14:09.424Z,92096.00
2018-04-15T10:15:09.443Z,95424.00
2018-04-15T10:16:09.419Z,104480.00
2018-04-15T10:17:09.427Z,97632.00
2018-04-15T10:18:09.421Z,92960.00
2018-04-15T10:19:09.429Z,95232.00
2018-04-15T10:20:09.415Z,91552.00
2018-04-15T10:21:09.413Z,94048.00
2018-04-15T10:22:09.406Z,47968.00
2018-04-15T10:23:09.405Z,93888.00
2018-04-15T10:24:09.487Z,94688.00
2018-04-15T10:25:09.417Z,92544.00
2018-04-15T10:26:09.401Z,85312.00
2018-04-15T10:27:09.400Z,83552.00
2018-04-15T10:28:09.396Z,84864.00
2018-04-15T10:29:09.408Z,89632.00
2018-04-15T10:30:09.409Z,89888.00
2018-04-15T10:31:09.393Z,87328.00
2018-04-15T10:32:09.392Z,81408.00
2018-04-15T10:33:09.390Z,82944.00
2018-04-15T10:34:09.387Z,75168.00
2018-04-15T10:35:09.408Z,76832.00
2018-04-15T10:36:09.385Z,81152.00
2018-04-15T10:37:09.385Z,87104.00
2018-04-15T10:38:09.385Z,87712.00
2018-04-15T10:39:09.377Z,85504.00
2018-04-15T10:40:09.401Z,83296.00
2018-04-15T10:41:09.391Z,82752.00
2018-04-15T10:42:09.393Z,78336.00
2018-04-15T10:43:09.380Z,6568.00
2018-04-15T10:44:09.372Z,6960.00
2018-04-15T10:45:09.377Z,54144.00
2018-04-15T10:46:09.372Z,12020.00
2018-04-15T10:47:09.371Z,8556.00
2018-04-15T10:48:09.382Z,6964.00
2018-04-15T10:49:09.368Z,6076.00
2018-04-15T10:50:09.363Z,4608.00
2018-04-15T10:51:09.359Z,5096.00
2018-04-15T10:52:09.356Z,32736.00
2018-04-15T10:53:09.367Z,86432.00
2018-04-15T10:54:09.346Z,12904.00
2018-04-15T10:55:09.342Z,8968.00
2018-04-15T10:56:09.346Z,9800.00
2018-04-15T10:57:09.334Z,10228.00
2018-04-15T10:58:30.344Z,66624.00
2018-04-15T10:59:09.327Z,26496.00
2018-04-15T11:00:09.317Z,8916.00
2018-04-15T11:01:09.314Z,10044.00
2018-04-15T11:02:09.312Z,87232.00
2018-04-15T11:03:09.304Z,88288.00
2018-04-15T11:04:09.317Z,86400.00
2018-04-15T11:05:09.294Z,50144.00
2018-04-15T11:06:09.288Z,79136.00
2018-04-15T11:07:09.285Z,38592.00
2018-04-15T11:08:09.279Z,24448.00
2018-04-15T11:09:09.288Z,12136.00
2018-04-15T11:10:09.270Z,11100.00
2018-04-15T11:11:09.278Z,26560.00
2018-04-15T11:12:09.262Z,10152.00
2018-04-15T11:13:09.257Z,9112.00
2018-04-15T11:14:09.288Z,8380.00
2018-04-15T11:15:09.245Z,10644.00
2018-04-15T11:16:09.242Z,24000.00
2018-04-15T11:17:09.237Z,26048.00
2018-04-15T11:18:09.230Z,21056.00
2018-04-15T11:19:09.238Z,72576.00
2018-04-15T11:20:09.216Z,6980.00
2018-04-15T11:21:09.220Z,6500.00
2018-04-15T11:22:09.213Z,8028.00
2018-04-15T11:23:09.204Z,19840.00
2018-04-15T11:24:09.214Z,10712.00
2018-04-15T11:25:09.197Z,14612.00
2018-04-15T11:26:09.185Z,17760.00
2018-04-15T11:27:09.184Z,30208.00
2018-04-15T11:28:09.183Z,16832.00
2018-04-15T11:29:09.171Z,11764.00
2018-04-15T11:30:09.175Z,14516.00
2018-04-15T11:31:09.160Z,20192.00
2018-04-15T11:32:09.149Z,14776.00
2018-04-15T11:33:09.147Z,12096.00
2018-04-15T11:34:09.150Z,13076.00
2018-04-15T11:35:09.150Z,12972.00
2018-04-15T11:36:09.125Z,12156.00
2018-04-15T11:37:09.118Z,10276.00
2018-04-15T11:38:09.123Z,9160.00
2018-04-15T11:39:09.111Z,8324.00
2018-04-15T11:40:09.116Z,8024.00
2018-04-15T11:41:09.092Z,7492.00
2018-04-15T11:42:09.085Z,6640.00
2018-04-15T11:43:09.080Z,5392.00
2018-04-15T11:44:09.076Z,4812.00
2018-04-15T11:45:09.074Z,4776.00
2018-04-15T11:46:09.083Z,4168.00
2018-04-15T11:47:09.053Z,3708.00
2018-04-15T11:48:09.044Z,3368.00
2018-04-15T11:49:09.038Z,3136.00
2018-04-15T11:50:09.033Z,2936.00
2018-04-15T11:51:09.023Z,2468.00
2018-04-15T11:52:09.031Z,2436.00
2018-04-15T11:53:09.008Z,2980.00
2018-04-15T11:54:09.000Z,3748.00
2018-04-15T11:55:09.005Z,4364.00
2018-04-15T11:56:08.986Z,4452.00
2018-04-15T11:57:08.971Z,4272.00
2018-04-15T11:58:08.966Z,4316.00
2018-04-15T11:59:08.962Z,4584.00
2018-04-15T12:00:08.962Z,5364.00
2018-04-15T12:01:08.944Z,5628.00
2018-04-15T12:02:08.957Z,9200.00
2018-04-15T12:03:08.922Z,18432.00
2018-04-15T12:04:10.764Z,26624.00
2018-04-15T12:05:08.921Z,28800.00
2018-04-15T12:06:08.900Z,74816.00
2018-04-15T12:07:08.890Z,12864.00
2018-04-15T12:08:08.881Z,82432.00
2018-04-15T12:09:08.873Z,8608.00
2018-04-15T12:10:08.891Z,8304.00
2018-04-15T12:11:08.877Z,9320.00
2018-04-15T12:12:08.858Z,11120.00
2018-04-15T12:13:08.848Z,41792.00
2018-04-15T12:14:08.839Z,22912.00
2018-04-15T12:15:08.840Z,74016.00
2018-04-15T12:16:08.841Z,66496.00
2018-04-15T12:17:08.821Z,54080.00
2018-04-15T12:18:08.813Z,64608.00
2018-04-15T12:19:08.812Z,68352.00
2018-04-15T12:20:08.816Z,13600.00
2018-04-15T12:21:08.812Z,12064.00
2018-04-15T12:22:08.793Z,9144.00
2018-04-15T12:23:08.785Z,7036.00
2018-04-15T12:24:08.784Z,19456.00
2018-04-15T12:25:08.777Z,70336.00
2018-04-15T12:26:08.789Z,58464.00
2018-04-15T12:27:08.766Z,61888.00
2018-04-15T12:28:08.765Z,30080.00
2018-04-15T12:29:08.761Z,60704.00
2018-04-15T12:30:08.752Z,30144.00